createdAt,value
2023-02-22T00:00:44.796Z,4.82
2023-02-22T00:03:19.384Z,5.90
2023-02-22T00:05:47.347Z,5.45
2023-02-22T00:08:15.652Z,4.78
2023-02-22T00:10:46.520Z,5.45
2023-02-22T00:13:14.671Z,5.10
2023-02-22T00:15:41.570Z,5.55
2023-02-22T00:18:12.227Z,5.07
2023-02-22T00:20:39.944Z,6.50
2023-02-22T00:23:08.590Z,5.80
2023-02-22T00:25:36.495Z,5.38
2023-02-22T00:28:04.968Z,5.63
2023-02-22T00:30:36.603Z,5.25
2023-02-22T00:33:05.645Z,6.13
2023-02-22T00:35:32.224Z,6.20
2023-02-22T00:38:00.800Z,6.57
2023-02-22T00:40:35.381Z,5.68
2023-02-22T00:43:04.992Z,6.13
2023-02-22T00:45:33.534Z,5.38
2023-02-22T00:48:00.917Z,5.18
2023-02-22T00:50:29.850Z,4.85
2023-02-22T00:52:57.608Z,5.32
2023-02-22T00:55:32.217Z,5.53
2023-02-22T00:57:59.708Z,4.85
2023-02-22T01:00:36.567Z,4.68
2023-02-22T01:03:06.266Z,5.18
2023-02-22T01:05:35.067Z,5.28
2023-02-22T01:08:03.505Z,4.20
2023-02-22T01:10:31.178Z,4.75
2023-02-22T01:13:00.091Z,4.70
2023-02-22T01:15:32.567Z,5.00
2023-02-22T01:18:03.322Z,3.90
2023-02-22T01:20:31.897Z,5.18
2023-02-22T01:23:00.784Z,4.50
2023-02-22T01:25:30.137Z,4.53
2023-02-22T01:27:58.446Z,4.32
2023-02-22T01:30:33.403Z,4.47
2023-02-22T01:33:04.685Z,4.25
2023-02-22T01:35:34.164Z,4.60
2023-02-22T01:38:02.473Z,3.85
2023-02-22T01:40:33.631Z,4.68
2023-02-22T01:43:08.361Z,4.97
2023-02-22T01:45:53.229Z,4.30
2023-02-22T01:48:40.816Z,3.83
2023-02-22T01:51:15.476Z,5.43
2023-02-22T01:53:57.168Z,5.67
2023-02-22T01:56:26.828Z,4.60
2023-02-22T01:58:59.384Z,4.88
2023-02-22T02:01:26.670Z,4.43
2023-02-22T02:04:00.434Z,6.28
2023-02-22T02:06:31.225Z,5.30
2023-02-22T02:09:06.327Z,4.78
2023-02-22T02:11:33.688Z,5.00
2023-02-22T02:14:03.604Z,4.85
2023-02-22T02:16:41.663Z,5.22
2023-02-22T02:19:23.777Z,5.15
2023-02-22T02:22:21.886Z,4.82
2023-02-22T02:25:00.993Z,5.05
2023-02-22T02:27:46.207Z,3.88
2023-02-22T02:30:36.853Z,4.20
2023-02-22T02:33:14.265Z,3.85
2023-02-22T02:36:19.153Z,4.10
2023-02-22T02:39:04.197Z,4.55
2023-02-22T02:41:37.112Z,4.55
2023-02-22T02:44:08.613Z,4.85
2023-02-22T02:46:43.406Z,4.70
2023-02-22T02:49:19.391Z,4.18
2023-02-22T02:51:50.908Z,4.50
2023-02-22T02:54:19.171Z,4.55
2023-02-22T02:56:52.298Z,4.40
2023-02-22T02:59:33.466Z,4.68
2023-02-22T03:02:29.669Z,4.05
2023-02-22T03:05:14.455Z,4.15
2023-02-22T03:07:44.694Z,4.28
2023-02-22T03:10:30.018Z,3.75
2023-02-22T03:13:27.176Z,3.80
2023-02-22T03:16:03.513Z,3.80
2023-02-22T03:19:12.915Z,3.33
2023-02-22T03:21:53.231Z,4.05
2023-02-22T03:24:31.751Z,3.80
2023-02-22T03:27:12.393Z,4.10
2023-02-22T03:29:47.295Z,4.03
2023-02-22T03:32:22.735Z,4.03
2023-02-22T03:35:00.468Z,3.88
2023-02-22T03:37:33.385Z,4.97
2023-02-22T03:40:14.071Z,4.38
2023-02-22T03:42:48.607Z,5.13
2023-02-22T03:45:18.175Z,7.05
2023-02-22T03:47:52.049Z,5.70
2023-02-22T03:50:22.764Z,5.28
2023-02-22T03:52:49.448Z,5.25
2023-02-22T03:55:18.363Z,5.22
2023-02-22T03:58:00.343Z,4.90
2023-02-22T04:00:30.729Z,4.78
2023-02-22T04:02:57.800Z,4.82
2023-02-22T04:05:33.053Z,4.63
2023-02-22T04:07:59.514Z,5.20
2023-02-22T04:10:26.286Z,5.63
2023-02-22T04:12:52.991Z,5.50
2023-02-22T04:15:24.770Z,5.70
2023-02-22T04:17:52.416Z,6.28
2023-02-22T04:20:20.179Z,6.50
2023-02-22T04:22:51.720Z,5.90
2023-02-22T04:25:18.861Z,5.53
2023-02-22T04:27:45.524Z,5.40
2023-02-22T04:30:12.942Z,5.47
2023-02-22T04:32:39.754Z,5.32
2023-02-22T04:35:13.206Z,5.15
2023-02-22T04:37:39.827Z,5.20
2023-02-22T04:40:07.869Z,5.15
2023-02-22T04:42:38.380Z,5.35
2023-02-22T04:45:08.075Z,5.03
2023-02-22T04:47:37.498Z,4.88
2023-02-22T04:50:06.169Z,4.03
2023-02-22T04:52:32.636Z,4.30
2023-02-22T04:54:59.169Z,3.70
2023-02-22T04:57:29.105Z,3.90
2023-02-22T04:59:55.844Z,3.90
2023-02-22T05:02:22.762Z,4.60
2023-02-22T05:04:49.356Z,4.43
2023-02-22T05:07:15.968Z,4.55
2023-02-22T05:09:42.524Z,4.15
2023-02-22T05:12:11.076Z,4.20
2023-02-22T05:14:37.677Z,4.20
2023-02-22T05:17:04.614Z,4.10
2023-02-22T05:19:31.248Z,4.60
2023-02-22T05:21:57.810Z,3.95
2023-02-22T05:24:24.591Z,3.88
2023-02-22T05:26:53.851Z,3.90
2023-02-22T05:29:21.083Z,4.22
2023-02-22T05:31:47.713Z,4.05
2023-02-22T05:34:15.072Z,4.32
2023-02-22T05:36:41.842Z,4.10
2023-02-22T05:39:08.427Z,4.55
2023-02-22T05:41:35.396Z,4.28
2023-02-22T05:44:03.118Z,4.60
2023-02-22T05:46:30.088Z,4.15
2023-02-22T05:49:05.169Z,3.70
2023-02-22T05:51:31.700Z,3.80
2023-02-22T05:53:58.350Z,4.05
2023-02-22T05:56:27.594Z,4.00
2023-02-22T05:58:57.114Z,4.38
2023-02-22T06:01:24.275Z,4.63
2023-02-22T06:03:53.192Z,4.53
2023-02-22T06:06:22.959Z,4.40
2023-02-22T06:08:49.773Z,3.95
2023-02-22T06:11:21.246Z,4.05
2023-02-22T06:13:52.018Z,3.92
2023-02-22T06:16:19.676Z,5.82
2023-02-22T06:18:48.207Z,4.60
2023-02-22T06:21:17.719Z,4.18
2023-02-22T06:23:44.772Z,4.53
2023-02-22T06:26:11.477Z,4.78
2023-02-22T06:28:37.940Z,4.82
2023-02-22T06:31:04.532Z,5.10
2023-02-22T06:33:31.152Z,5.53
2023-02-22T06:36:00.079Z,5.30
2023-02-22T06:38:27.742Z,5.68
2023-02-22T06:40:58.251Z,5.35
2023-02-22T06:43:25.755Z,5.72
2023-02-22T06:45:52.879Z,5.68
2023-02-22T06:48:21.363Z,6.43
2023-02-22T06:50:47.866Z,6.78
2023-02-22T06:53:14.376Z,5.50
2023-02-22T06:55:40.946Z,5.85
2023-02-22T06:58:09.670Z,5.05
2023-02-22T07:00:36.261Z,5.15
2023-02-22T07:03:06.598Z,5.82
2023-02-22T07:05:33.181Z,5.63
2023-02-22T07:08:05.629Z,5.68
2023-02-22T07:10:35.373Z,5.40
2023-02-22T07:13:02.516Z,5.72
2023-02-22T07:15:30.720Z,5.93
2023-02-22T07:17:57.368Z,5.63
2023-02-22T07:20:27.537Z,4.90
2023-02-22T07:22:54.350Z,4.80
2023-02-22T07:25:29.509Z,4.57
2023-02-22T07:27:56.196Z,4.65
2023-02-22T07:30:30.874Z,5.93
2023-02-22T07:32:59.858Z,5.72
2023-02-22T07:35:36.709Z,5.80
2023-02-22T07:38:06.127Z,6.28
2023-02-22T07:40:32.671Z,5.72
2023-02-22T07:43:20.964Z,6.85
2023-02-22T07:45:50.771Z,5.60
2023-02-22T07:48:18.929Z,4.95
2023-02-22T07:50:48.458Z,5.20
2023-02-22T07:53:28.812Z,4.22
2023-02-22T07:55:57.317Z,5.03
2023-02-22T07:58:27.074Z,5.13
2023-02-22T08:00:54.339Z,3.80
2023-02-22T08:03:26.458Z,4.43
2023-02-22T08:05:55.703Z,4.20
2023-02-22T08:08:22.736Z,4.03
2023-02-22T08:10:55.205Z,4.65
2023-02-22T08:13:22.828Z,3.83
2023-02-22T08:15:53.631Z,4.70
2023-02-22T08:18:23.481Z,4.30
2023-02-22T08:20:53.222Z,4.25
2023-02-22T08:23:22.522Z,4.05
2023-02-22T08:25:49.213Z,3.72
2023-02-22T08:28:20.012Z,3.55
2023-02-22T08:30:46.576Z,4.10
2023-02-22T08:33:17.032Z,3.65
2023-02-22T08:35:43.803Z,3.67
2023-02-22T08:38:26.583Z,3.97
2023-02-22T08:40:56.633Z,4.07
2023-02-22T08:43:23.848Z,4.30
2023-02-22T08:45:52.146Z,3.80
2023-02-22T08:48:21.411Z,4.05
2023-02-22T08:50:47.963Z,4.38
2023-02-22T08:53:23.117Z,4.55
2023-02-22T08:55:49.881Z,4.13
2023-02-22T08:58:16.701Z,4.55
2023-02-22T09:00:46.406Z,4.15
2023-02-22T09:03:14.580Z,4.53
2023-02-22T09:05:42.653Z,4.88
2023-02-22T09:08:09.797Z,4.82
2023-02-22T09:10:36.782Z,4.85
2023-02-22T09:13:04.353Z,5.20
2023-02-22T09:15:32.159Z,5.15
2023-02-22T09:18:02.432Z,4.22
2023-02-22T09:20:33.130Z,4.63
2023-02-22T09:23:01.557Z,4.80
2023-02-22T09:25:28.232Z,5.25
2023-02-22T09:27:56.675Z,4.50
2023-02-22T09:30:32.737Z,5.03
2023-02-22T09:33:03.370Z,5.00
2023-02-22T09:35:30.248Z,5.13
2023-02-22T09:37:58.578Z,5.13
2023-02-22T09:40:30.153Z,5.00
2023-02-22T09:43:07.520Z,5.18
2023-02-22T09:45:45.139Z,4.72
2023-02-22T09:48:22.134Z,5.20
2023-02-22T09:50:53.708Z,5.90
2023-02-22T09:53:41.697Z,5.45
2023-02-22T09:56:11.121Z,6.35
2023-02-22T09:58:47.646Z,5.80
2023-02-22T10:01:36.574Z,5.63
2023-02-22T10:04:32.338Z,6.00
2023-02-22T10:07:15.378Z,5.13
2023-02-22T10:09:46.887Z,6.20
2023-02-22T10:12:30.231Z,6.88
2023-02-22T10:15:23.117Z,5.57
2023-02-22T10:18:17.531Z,6.57
2023-02-22T10:21:07.105Z,6.07
2023-02-22T10:23:42.839Z,6.30
2023-02-22T10:28:43.997Z,5.28
2023-02-22T10:31:21.944Z,5.32
2023-02-22T10:33:56.936Z,5.15
2023-02-22T10:36:28.210Z,4.97
2023-02-22T10:39:12.128Z,5.50
2023-02-22T10:41:48.006Z,5.22
2023-02-22T10:44:15.389Z,5.72
2023-02-22T10:46:43.356Z,5.57
2023-02-22T10:49:13.277Z,6.03
2023-02-22T10:51:41.510Z,5.88
2023-02-22T10:54:21.340Z,5.78
2023-02-22T10:56:50.461Z,6.38
2023-02-22T10:59:33.482Z,5.75
2023-02-22T11:02:20.157Z,5.60
2023-02-22T11:04:49.743Z,4.95
2023-02-22T11:07:27.285Z,5.43
2023-02-22T11:10:05.417Z,5.72
2023-02-22T11:12:37.572Z,5.13
2023-02-22T11:15:21.285Z,5.10
2023-02-22T11:17:51.859Z,5.03
2023-02-22T11:20:34.728Z,5.18
2023-02-22T11:23:05.122Z,5.15
2023-02-22T11:25:37.473Z,5.28
2023-02-22T11:28:10.491Z,5.50
2023-02-22T11:30:40.528Z,5.07
2023-02-22T11:33:26.165Z,5.70
2023-02-22T11:36:02.541Z,5.38
2023-02-22T11:38:34.212Z,5.63
2023-02-22T11:41:19.019Z,5.57
2023-02-22T11:43:51.940Z,5.72
2023-02-22T11:46:23.309Z,5.35
2023-02-22T11:49:11.834Z,5.60
2023-02-22T11:52:13.785Z,5.65
2023-02-22T11:54:58.270Z,5.05
2023-02-22T11:57:48.359Z,4.93
2023-02-22T12:00:24.549Z,4.57
2023-02-22T12:03:06.417Z,5.35
2023-02-22T12:06:02.792Z,5.20
2023-02-22T12:09:06.114Z,5.22
2023-02-22T12:12:08.755Z,5.30
2023-02-22T12:14:45.807Z,5.80
2023-02-22T12:17:21.385Z,5.88
2023-02-22T12:19:51.738Z,5.35
2023-02-22T12:22:27.669Z,5.78
2023-02-22T12:25:18.415Z,5.50
2023-02-22T12:28:25.137Z,5.60
2023-02-22T12:31:05.475Z,5.05
2023-02-22T12:33:49.521Z,5.38
2023-02-22T12:36:21.220Z,5.85
2023-02-22T12:38:54.780Z,5.55
2023-02-22T12:41:58.833Z,5.72
2023-02-22T12:44:35.141Z,5.00
2023-02-22T12:47:05.582Z,5.85
2023-02-22T12:50:03.205Z,6.03
2023-02-22T12:52:56.008Z,5.40
2023-02-22T12:55:31.697Z,6.55
2023-02-22T12:58:39.914Z,5.82
2023-02-22T13:01:20.290Z,5.30
2023-02-22T13:03:49.230Z,5.70
2023-02-22T13:06:40.595Z,5.70
2023-02-22T13:09:26.265Z,5.60
2023-02-22T13:12:03.808Z,5.25
2023-02-22T13:14:43.434Z,5.55
2023-02-22T13:17:22.518Z,5.70
2023-02-22T13:20:08.921Z,6.20
2023-02-22T13:22:35.356Z,6.00
2023-02-22T13:25:20.282Z,6.72
2023-02-22T13:27:59.369Z,5.78
2023-02-22T13:30:43.693Z,5.80
2023-02-22T13:33:28.472Z,5.90
2023-02-22T13:36:03.531Z,6.72
2023-02-22T13:38:58.517Z,6.30
2023-02-22T13:41:37.126Z,5.75
2023-02-22T13:44:24.882Z,6.22
2023-02-22T13:47:19.513Z,6.00
2023-02-22T13:50:21.168Z,5.88
2023-02-22T13:52:49.312Z,5.88
2023-02-22T13:55:27.182Z,5.95
2023-02-22T13:58:04.778Z,5.50
2023-02-22T14:00:57.867Z,5.85
2023-02-22T14:03:45.460Z,6.15
2023-02-22T14:06:41.594Z,6.20
2023-02-22T14:09:16.190Z,6.75
2023-02-22T14:11:45.033Z,6.72
2023-02-22T14:14:16.148Z,6.80
2023-02-22T14:16:43.133Z,6.43
2023-02-22T14:19:09.557Z,6.97
2023-02-22T14:21:36.319Z,7.05
2023-02-22T14:24:15.687Z,6.95
2023-02-22T14:26:55.096Z,7.25
2023-02-22T14:29:21.847Z,6.35
2023-02-22T14:32:02.172Z,6.50
2023-02-22T14:34:52.751Z,6.90
2023-02-22T14:37:37.868Z,6.75
2023-02-22T14:40:18.474Z,6.68
2023-02-22T14:42:51.060Z,6.72
2023-02-22T14:45:30.155Z,7.00
2023-02-22T14:48:23.978Z,7.20
2023-02-22T14:51:11.944Z,7.47
2023-02-22T14:53:48.673Z,8.90
2023-02-22T14:56:23.724Z,8.20
2023-02-22T14:58:58.995Z,8.40
2023-02-22T15:01:48.902Z,9.15
2023-02-22T15:04:23.159Z,7.50
2023-02-22T15:06:52.408Z,8.32
2023-02-22T15:09:28.529Z,9.95
2023-02-22T15:12:06.100Z,9.13
2023-02-22T15:14:43.473Z,8.93
2023-02-22T15:17:18.741Z,9.55
2023-02-22T15:19:48.638Z,8.23
2023-02-22T15:22:21.210Z,8.50
2023-02-22T15:25:01.248Z,7.35
2023-02-22T15:27:28.557Z,6.97
2023-02-22T15:30:05.717Z,7.50
2023-02-22T15:32:49.978Z,7.30
2023-02-22T15:35:26.622Z,7.03
2023-02-22T15:38:08.170Z,7.10
2023-02-22T15:40:35.480Z,6.32
2023-02-22T15:43:05.242Z,7.53
2023-02-22T15:45:34.958Z,7.40
2023-02-22T15:48:02.043Z,7.13
2023-02-22T15:50:29.855Z,6.88
2023-02-22T15:53:02.793Z,7.00
2023-02-22T15:55:54.709Z,6.80
2023-02-22T15:58:26.622Z,6.72
2023-02-22T16:01:05.476Z,7.30
2023-02-22T16:03:50.469Z,6.85
2023-02-22T16:06:22.629Z,7.13
2023-02-22T16:08:56.817Z,7.20
2023-02-22T16:11:30.140Z,6.88
2023-02-22T16:14:06.117Z,6.80
2023-02-22T16:16:41.805Z,7.30
2023-02-22T16:22:02.965Z,6.53
2023-02-22T16:27:07.083Z,7.85
2023-02-22T16:29:33.749Z,8.43
2023-02-22T16:32:03.558Z,8.30
2023-02-22T16:34:30.330Z,8.02
2023-02-22T16:36:57.269Z,8.15
2023-02-22T16:39:29.399Z,8.00
2023-02-22T16:42:01.668Z,7.45
2023-02-22T16:44:29.069Z,7.80
2023-02-22T16:46:58.247Z,7.60
2023-02-22T16:49:25.445Z,7.35
2023-02-22T16:52:01.265Z,7.32
2023-02-22T16:57:06.409Z,7.78
2023-02-22T16:59:38.246Z,7.70
2023-02-22T17:02:11.927Z,7.13
2023-02-22T17:04:40.256Z,7.15
2023-02-22T17:07:09.417Z,6.90
2023-02-22T17:09:37.785Z,7.45
2023-02-22T17:12:04.489Z,7.35
2023-02-22T17:14:34.692Z,7.82
2023-02-22T17:17:01.415Z,7.55
2023-02-22T17:19:28.207Z,7.95
2023-02-22T17:21:54.832Z,7.72
2023-02-22T17:24:23.751Z,7.10
2023-02-22T17:26:53.045Z,7.97
2023-02-22T17:29:20.633Z,8.10
2023-02-22T17:31:50.608Z,7.65
2023-02-22T17:34:17.898Z,7.85
2023-02-22T17:36:46.762Z,8.15
2023-02-22T17:39:19.784Z,7.68
2023-02-22T17:41:46.571Z,7.93
2023-02-22T17:44:13.107Z,8.27
2023-02-22T17:46:42.251Z,8.05
2023-02-22T17:49:10.773Z,7.90
2023-02-22T17:51:40.155Z,7.53
2023-02-22T17:54:10.544Z,8.23
2023-02-22T17:56:38.847Z,8.00
2023-02-22T17:59:09.146Z,8.20
2023-02-22T18:01:36.083Z,9.70
2023-02-22T18:04:03.871Z,9.75
2023-02-22T18:06:32.840Z,7.85
2023-02-22T18:09:00.761Z,8.88
2023-02-22T18:11:32.608Z,9.25
2023-02-22T18:13:59.893Z,9.18
2023-02-22T18:16:26.927Z,9.40
2023-02-22T18:18:55.129Z,8.98
2023-02-22T18:21:22.057Z,8.55
2023-02-22T18:23:48.575Z,9.50
2023-02-22T18:26:24.336Z,9.13
2023-02-22T18:28:51.524Z,9.35
2023-02-22T18:31:20.525Z,9.35
2023-02-22T18:33:49.960Z,9.38
2023-02-22T18:36:17.632Z,9.13
2023-02-22T18:38:46.828Z,10.05
2023-02-22T18:41:15.772Z,9.25
2023-02-22T18:43:43.166Z,9.15
2023-02-22T18:46:16.347Z,9.00
2023-02-22T18:48:43.932Z,8.65
2023-02-22T18:51:13.538Z,9.00
2023-02-22T18:53:41.569Z,8.15
2023-02-22T18:56:14.307Z,9.00
2023-02-22T18:58:43.275Z,8.73
2023-02-22T19:01:15.826Z,8.40
2023-02-22T19:03:42.919Z,7.90
2023-02-22T19:06:10.073Z,7.93
2023-02-22T19:08:39.730Z,8.43
2023-02-22T19:11:09.365Z,8.77
2023-02-22T19:13:36.401Z,8.68
2023-02-22T19:16:08.986Z,10.50
2023-02-22T19:18:36.476Z,10.70
2023-02-22T19:21:04.592Z,10.57
2023-02-22T19:23:34.516Z,10.68
2023-02-22T19:26:03.587Z,11.00
2023-02-22T19:28:34.210Z,10.52
2023-02-22T19:31:22.781Z,9.90
2023-02-22T19:33:56.423Z,9.57
2023-02-22T19:36:23.260Z,9.75
2023-02-22T19:38:50.192Z,10.68
2023-02-22T19:41:20.278Z,10.57
2023-02-22T19:43:52.092Z,9.50
2023-02-22T19:46:23.455Z,10.02
2023-02-22T19:48:51.040Z,12.07
2023-02-22T19:51:20.517Z,12.23
2023-02-22T19:53:49.447Z,10.70
2023-02-22T19:56:20.738Z,11.65
2023-02-22T19:58:50.001Z,10.50
2023-02-22T20:01:23.230Z,12.15
2023-02-22T20:03:54.958Z,10.98
2023-02-22T20:06:30.371Z,10.63
2023-02-22T20:08:57.694Z,11.75
2023-02-22T20:11:26.844Z,10.10
2023-02-22T20:13:57.303Z,10.50
2023-02-22T20:16:24.052Z,10.73
2023-02-22T20:18:51.489Z,11.48
2023-02-22T20:21:21.913Z,13.00
2023-02-22T20:23:48.804Z,12.52
2023-02-22T20:26:18.827Z,12.90
2023-02-22T20:28:48.169Z,12.98
2023-02-22T20:31:16.382Z,12.57
2023-02-22T20:33:45.778Z,12.07
2023-02-22T20:36:14.720Z,11.55
2023-02-22T20:38:41.613Z,12.30
2023-02-22T20:41:21.334Z,12.60
2023-02-22T20:43:52.527Z,11.27
2023-02-22T20:46:19.523Z,12.20
2023-02-22T20:48:46.260Z,12.50
2023-02-22T20:51:14.904Z,12.48
2023-02-22T20:53:45.240Z,12.05
2023-02-22T20:56:16.961Z,14.23
2023-02-22T20:58:45.819Z,12.85
2023-02-22T21:01:14.152Z,13.00
2023-02-22T21:03:46.137Z,13.23
2023-02-22T21:06:17.876Z,13.07
2023-02-22T21:08:50.140Z,13.45
2023-02-22T21:11:18.509Z,12.70
2023-02-22T21:13:45.206Z,11.57
2023-02-22T21:16:23.725Z,11.43
2023-02-22T21:18:54.726Z,11.95
2023-02-22T21:21:23.507Z,13.70
2023-02-22T21:24:00.821Z,11.45
2023-02-22T21:26:29.655Z,12.23
2023-02-22T21:29:00.655Z,14.27
2023-02-22T21:31:28.673Z,12.50
2023-02-22T21:34:00.042Z,12.63
2023-02-22T21:36:28.328Z,13.77
2023-02-22T21:39:02.019Z,14.32
2023-02-22T21:41:31.135Z,12.40
2023-02-22T21:44:04.474Z,12.38
2023-02-22T21:46:31.004Z,12.15
2023-02-22T21:48:58.824Z,13.95
2023-02-22T21:51:38.063Z,12.77
2023-02-22T21:54:07.606Z,14.95
2023-02-22T21:56:37.168Z,11.98
2023-02-22T21:59:22.511Z,12.85
2023-02-22T22:01:56.066Z,11.47
2023-02-22T22:04:32.473Z,12.45
2023-02-22T22:07:00.582Z,11.25
2023-02-22T22:09:33.026Z,10.30
2023-02-22T22:12:05.545Z,10.98
2023-02-22T22:14:33.661Z,11.40
2023-02-22T22:17:01.491Z,11.10
2023-02-22T22:19:30.462Z,10.73
2023-02-22T22:21:58.160Z,11.07
2023-02-22T22:24:25.399Z,10.57
2023-02-22T22:26:54.959Z,10.10
2023-02-22T22:29:26.666Z,11.02
2023-02-22T22:31:55.084Z,10.10
2023-02-22T22:34:26.183Z,10.27
2023-02-22T22:36:52.769Z,10.90
2023-02-22T22:39:21.042Z,10.13
2023-02-22T22:41:50.141Z,10.20
2023-02-22T22:44:22.363Z,14.00
2023-02-22T22:46:50.513Z,10.85
2023-02-22T22:49:17.219Z,10.80
2023-02-22T22:51:47.389Z,10.30
2023-02-22T22:54:14.421Z,10.30
2023-02-22T22:56:45.392Z,10.77
2023-02-22T22:59:13.401Z,10.38
2023-02-22T23:01:44.495Z,10.30
2023-02-22T23:04:16.870Z,11.32
2023-02-22T23:06:48.148Z,10.63
2023-02-22T23:09:22.126Z,10.43
2023-02-22T23:11:56.073Z,10.75
2023-02-22T23:14:28.409Z,10.27
2023-02-22T23:17:00.062Z,10.20
2023-02-22T23:19:26.599Z,10.77
2023-02-22T23:21:57.720Z,9.63
2023-02-22T23:24:27.359Z,10.35
2023-02-22T23:26:56.867Z,9.38
2023-02-22T23:29:23.547Z,9.98
2023-02-22T23:31:50.404Z,10.48
2023-02-22T23:34:18.423Z,9.95
2023-02-22T23:36:51.256Z,11.15
2023-02-22T23:39:20.760Z,11.15
2023-02-22T23:41:58.741Z,10.30
2023-02-22T23:44:28.084Z,11.07
2023-02-22T23:46:55.845Z,10.38
2023-02-22T23:49:29.452Z,11.63
2023-02-22T23:51:55.886Z,11.77
2023-02-22T23:54:24.622Z,12.13
2023-02-22T23:57:02.558Z,11.98
2023-02-22T23:59:30.088Z,12.55
